Maximos A — TCA3531 — position and weather

sailwx.info

Track history (hours):
 
Tides and Currents Weather Stations Pressure Air Temp Water Temp Dewpoint Dewpoint Depression Visibility Wind Speed Wind Dir Waves Ship Positions

Maximos A

Last reported at 2018-May-04 23:07 UTC. Time now 2018-May-26 10:16 UTC.
Position N 08°38' W 015°43'.
Warning: this ship's position is 21 days out of date.

Length 207 m; draft 11.5 m.

Type: Cargo ship. MMSI: 271044166.

Date/timePositionNaut miles runAvg speedWind from/ knotsBaromVisibWave heightAir tempDewpointWater temp
2018-May-04 23:07N 08°38' W 015°43'1314.3
2018-May-04 22:11N 08°48' W 015°51'314.2
2018-May-04 22:00N 08°50' W 015°53'1214.3
2018-May-04 21:09N 08°60' W 016°01'314.3
2018-May-04 20:56N 09°02' W 016°03'614.4
2018-May-04 20:30N 09°07' W 016°07'714.4
2018-May-04 20:00N 09°13' W 016°11'714.5
2018-May-04 19:30N 09°19' W 016°15'714.5
2018-May-04 19:00N 09°24' W 016°20'714.5
2018-May-04 18:30N 09°30' W 016°25'714.4
2018-May-04 18:00N 09°35' W 016°29'1014.6
2018-May-04 17:19N 09°43' W 016°36'514.8
2018-May-04 17:00N 09°46' W 016°39'714.7
2018-May-04 16:30N 09°52' W 016°44'714.7
2018-May-04 16:00N 09°58' W 016°49'714.6
2018-May-04 15:30N 10°03' W 016°53'714.8
2018-May-04 15:00N 10°09' W 016°58'1615.1
2018-May-04 13:56N 10°21' W 017°09'  
2018-May-01 17:38N 28°40' W 013°24'318.3
2018-May-01 17:30N 28°43' W 013°23'918.3
2018-May-01 17:00N 28°51' W 013°18'1018.1
2018-May-01 16:27N 29°00' W 013°14'817.8
2018-May-01 16:00N 29°07' W 013°10'56317.1
2018-Apr-30 07:03N 35°58' W 005°33'212.3
2018-Apr-30 06:55N 35°59' W 005°31'511.8
2018-Apr-30 06:30N 36°00' W 005°25'612.6
2018-Apr-30 06:00N 36°06' W 005°23'3 6.4
2018-Apr-30 05:30N 36°09' W 005°26'0 0.1
2018-Apr-30 04:59N 36°09' W 005°26'0 0.0
2018-Apr-30 04:29N 36°09' W 005°26'0 0.0
2018-Apr-30 04:00N 36°09' W 005°26'0 0.0
2018-Apr-30 03:29N 36°09' W 005°26'0 0.0
2018-Apr-30 03:00N 36°09' W 005°26'0 0.0
2018-Apr-30 02:30N 36°09' W 005°26'0 0.0
2018-Apr-30 02:00N 36°09' W 005°26'0 0.0
2018-Apr-30 01:26N 36°09' W 005°26'0 0.0
2018-Apr-30 01:00N 36°09' W 005°26'0 0.0
2018-Apr-30 00:30N 36°09' W 005°26'0 0.0
2018-Apr-30 00:00N 36°09' W 005°26'0 0.0
2018-Apr-29 23:28N 36°09' W 005°26'1 2.9
2018-Apr-29 23:00N 36°09' W 005°25'3 5.5
2018-Apr-29 22:30N 36°06' W 005°24'3 6.2
2018-Apr-29 22:00N 36°04' W 005°21'4 7.1
2018-Apr-29 21:30N 36°05' W 005°16'510.6
2018-Apr-29 21:00N 36°06' W 005°10'611.0
2018-Apr-29 20:28N 36°07' W 005°03'4 7.7
2018-Apr-29 19:59N 36°08' W 004°58'0 1.0
2018-Apr-29 19:30N 36°08' W 004°59'1 1.1
2018-Apr-29 19:00N 36°08' W 004°59'2 1.4
2018-Apr-29 17:36N 36°09' W 005°02'12 4.8
2018-Apr-29 15:11N 36°04' W 005°15'210.5
2018-Apr-29 15:00N 36°04' W 005°13'24 1.5
2018-Apr-28 22:28N 35°47' W 004°52'10 0.6
2018-Apr-28 05:10N 35°54' W 004°59'315.2
2018-Apr-28 04:58N 35°55' W 005°03'816.0
2018-Apr-28 04:29N 35°57' W 005°12'715.5
2018-Apr-28 04:00N 35°58' W 005°21'814.8
2018-Apr-28 03:30N 35°55' W 005°30'2 1.5
2018-Apr-28 02:25N 35°53' W 005°30'0 0.0
2018-Apr-28 02:00N 35°53' W 005°30'0 0.0
2018-Apr-28 01:30N 35°53' W 005°30'0 0.0
2018-Apr-28 00:58N 35°53' W 005°30'0 0.0
2018-Apr-28 00:30N 35°53' W 005°30'0 0.0
2018-Apr-28 00:00N 35°53' W 005°30'0 0.0
2018-Apr-27 23:30N 35°53' W 005°30'0 0.0
2018-Apr-27 22:54N 35°53' W 005°30'0 0.0
2018-Apr-27 22:17N 35°53' W 005°30'0 0.1
2018-Apr-27 21:52N 35°53' W 005°30'0 0.0
2018-Apr-27 21:26N 35°53' W 005°30'0 0.0
2018-Apr-27 20:59N 35°53' W 005°30'0 0.0
2018-Apr-27 20:30N 35°53' W 005°30'0 0.0
2018-Apr-27 20:00N 35°53' W 005°30'0 0.0
2018-Apr-27 19:31N 35°53' W 005°30'0 0.1
2018-Apr-27 18:58N 35°53' W 005°30'0 0.2
2018-Apr-27 18:29N 35°53' W 005°30'2 4.1
2018-Apr-27 18:00N 35°55' W 005°30'3 1.7
2018-Apr-27 16:27N 35°58' W 005°31'510.8
2018-Apr-27 16:01N 35°59' W 005°25'510.9
2018-Apr-27 15:31N 36°02' W 005°19'610.7
2018-Apr-27 14:57N 36°03' W 005°12'6 0.4
2018-Apr-26 22:47N 36°06' W 005°05'0 0.5
2018-Apr-26 22:24N 36°06' W 005°05'0 0.5
2018-Apr-26 21:58N 36°06' W 005°05'0 0.5
2018-Apr-26 21:26N 36°06' W 005°05'1 0.4
2018-Apr-26 19:30N 36°06' W 005°04'0 0.1
2018-Apr-26 18:28N 36°06' W 005°04'1 0.1
2018-Apr-25 19:53N 36°07' W 005°04'9 8.5
2018-Apr-25 18:53N 36°01' W 005°12'718.1
2018-Apr-25 18:31N 35°59' W 005°20'  
Track history (hours):
 
Tides and Currents Weather Stations Pressure Air Temp Water Temp Dewpoint Dewpoint Depression Visibility Wind Speed Wind Dir Waves Ship Positions

Maximos A

Last reported at 2018-May-04 23:07 UTC. Time now 2018-May-26 10:16 UTC.
Position N 08°38' W 015°43'.
Warning: this ship's position is 21 days out of date.

Length 207 m; draft 11.5 m.

Type: Cargo ship. MMSI: 271044166.

Date/timePositionNaut miles runAvg speedWind from/ knotsBaromVisibWave heightAir tempDewpointWater temp
2018-May-04 23:07N 08°38' W 015°43'1314.3
2018-May-04 22:11N 08°48' W 015°51'314.2
2018-May-04 22:00N 08°50' W 015°53'1214.3
2018-May-04 21:09N 08°60' W 016°01'314.3
2018-May-04 20:56N 09°02' W 016°03'614.4
2018-May-04 20:30N 09°07' W 016°07'714.4
2018-May-04 20:00N 09°13' W 016°11'714.5
2018-May-04 19:30N 09°19' W 016°15'714.5
2018-May-04 19:00N 09°24' W 016°20'714.5
2018-May-04 18:30N 09°30' W 016°25'714.4
2018-May-04 18:00N 09°35' W 016°29'1014.6
2018-May-04 17:19N 09°43' W 016°36'514.8
2018-May-04 17:00N 09°46' W 016°39'714.7
2018-May-04 16:30N 09°52' W 016°44'714.7
2018-May-04 16:00N 09°58' W 016°49'714.6
2018-May-04 15:30N 10°03' W 016°53'714.8
2018-May-04 15:00N 10°09' W 016°58'1615.1
2018-May-04 13:56N 10°21' W 017°09'  
2018-May-01 17:38N 28°40' W 013°24'318.3
2018-May-01 17:30N 28°43' W 013°23'918.3
2018-May-01 17:00N 28°51' W 013°18'1018.1
2018-May-01 16:27N 29°00' W 013°14'817.8
2018-May-01 16:00N 29°07' W 013°10'56317.1
2018-Apr-30 07:03N 35°58' W 005°33'212.3
2018-Apr-30 06:55N 35°59' W 005°31'511.8
2018-Apr-30 06:30N 36°00' W 005°25'612.6
2018-Apr-30 06:00N 36°06' W 005°23'3 6.4
2018-Apr-30 05:30N 36°09' W 005°26'0 0.1
2018-Apr-30 04:59N 36°09' W 005°26'0 0.0
2018-Apr-30 04:29N 36°09' W 005°26'0 0.0
2018-Apr-30 04:00N 36°09' W 005°26'0 0.0
2018-Apr-30 03:29N 36°09' W 005°26'0 0.0
2018-Apr-30 03:00N 36°09' W 005°26'0 0.0
2018-Apr-30 02:30N 36°09' W 005°26'0 0.0
2018-Apr-30 02:00N 36°09' W 005°26'0 0.0
2018-Apr-30 01:26N 36°09' W 005°26'0 0.0
2018-Apr-30 01:00N 36°09' W 005°26'0 0.0
2018-Apr-30 00:30N 36°09' W 005°26'0 0.0
2018-Apr-30 00:00N 36°09' W 005°26'0 0.0
2018-Apr-29 23:28N 36°09' W 005°26'1 2.9
2018-Apr-29 23:00N 36°09' W 005°25'3 5.5
2018-Apr-29 22:30N 36°06' W 005°24'3 6.2
2018-Apr-29 22:00N 36°04' W 005°21'4 7.1
2018-Apr-29 21:30N 36°05' W 005°16'510.6
2018-Apr-29 21:00N 36°06' W 005°10'611.0
2018-Apr-29 20:28N 36°07' W 005°03'4 7.7
2018-Apr-29 19:59N 36°08' W 004°58'0 1.0
2018-Apr-29 19:30N 36°08' W 004°59'1 1.1
2018-Apr-29 19:00N 36°08' W 004°59'2 1.4
2018-Apr-29 17:36N 36°09' W 005°02'12 4.8
2018-Apr-29 15:11N 36°04' W 005°15'210.5
2018-Apr-29 15:00N 36°04' W 005°13'24 1.5
2018-Apr-28 22:28N 35°47' W 004°52'10 0.6
2018-Apr-28 05:10N 35°54' W 004°59'315.2
2018-Apr-28 04:58N 35°55' W 005°03'816.0
2018-Apr-28 04:29N 35°57' W 005°12'715.5
2018-Apr-28 04:00N 35°58' W 005°21'814.8
2018-Apr-28 03:30N 35°55' W 005°30'2 1.5
2018-Apr-28 02:25N 35°53' W 005°30'0 0.0
2018-Apr-28 02:00N 35°53' W 005°30'0 0.0
2018-Apr-28 01:30N 35°53' W 005°30'0 0.0
2018-Apr-28 00:58N 35°53' W 005°30'0 0.0
2018-Apr-28 00:30N 35°53' W 005°30'0 0.0
2018-Apr-28 00:00N 35°53' W 005°30'0 0.0
2018-Apr-27 23:30N 35°53' W 005°30'0 0.0
2018-Apr-27 22:54N 35°53' W 005°30'0 0.0
2018-Apr-27 22:17N 35°53' W 005°30'0 0.1
2018-Apr-27 21:52N 35°53' W 005°30'0 0.0
2018-Apr-27 21:26N 35°53' W 005°30'0 0.0
2018-Apr-27 20:59N 35°53' W 005°30'0 0.0
2018-Apr-27 20:30N 35°53' W 005°30'0 0.0
2018-Apr-27 20:00N 35°53' W 005°30'0 0.0
2018-Apr-27 19:31N 35°53' W 005°30'0 0.1
2018-Apr-27 18:58N 35°53' W 005°30'0 0.2
2018-Apr-27 18:29N 35°53' W 005°30'2 4.1
2018-Apr-27 18:00N 35°55' W 005°30'3 1.7
2018-Apr-27 16:27N 35°58' W 005°31'510.8
2018-Apr-27 16:01N 35°59' W 005°25'510.9
2018-Apr-27 15:31N 36°02' W 005°19'610.7
2018-Apr-27 14:57N 36°03' W 005°12'6 0.4
2018-Apr-26 22:47N 36°06' W 005°05'0 0.5
2018-Apr-26 22:24N 36°06' W 005°05'0 0.5
2018-Apr-26 21:58N 36°06' W 005°05'0 0.5
2018-Apr-26 21:26N 36°06' W 005°05'1 0.4
2018-Apr-26 19:30N 36°06' W 005°04'0 0.1
2018-Apr-26 18:28N 36°06' W 005°04'1 0.1
2018-Apr-25 19:53N 36°07' W 005°04'9 8.5
2018-Apr-25 18:53N 36°01' W 005°12'718.1
2018-Apr-25 18:31N 35°59' W 005°20'  

Dump ship's entire track history